Arnoldsville, Georgia
Current Conditions -  °F | °C
As of 9:51 AM on Sunday 23 Nov 2014 (Local Time) from KAHN Reporting Station
Moderate Rain Moderate Rain  
Wind Chill:   Ceiling: 400
Heat Index:   Visibility: 1.7mi
Dew Point:   Wind: 10mph
Humidity: 96%   Direction: 70°ENE
Pressure: 30.06"   Gusts: NA
Location:  33.91°N, 83.22°W
Report Text: KAHN 231451Z 07009KT 1 3/4SM RA BR OVC004 09/08 A3006 RMK AO2 SLP182 P0017 60039 T00890083 58006 $
Loading
Personal Weather Stations






























Interactive Weather Map New forecast layout! Learn more

10-Day Weather Forecast

Advertisements
Track Severe Weather on mobile